Time;durP1;ratioP1;P1;durP2;ratioP2;P2;SDS_P1;SDS_P2;PMS_P1;PMS_P2;Temp;Humidity;BMP_temperature;BMP_pressure;BME280_temperature;BME280_humidity;BME280_pressure;Samples;Min_cycle;Max_cycle;Signal;HPM_P1;HPM_P2
2021/04/10 00:00:15;;;;;;;6.82;3.45;;;;;;;7.45;40.49;102349.03;143742;607;46018;-74
2021/04/10 00:02:42;;;;;;;4.97;2.70;;;;;;;7.46;41.17;102337.69;143752;626;47010;-74
2021/04/10 00:05:11;;;;;;;5.37;3.37;;;;;;;7.48;41.78;102348.16;143749;577;48022;-74
2021/04/10 00:07:38;;;;;;;6.50;3.60;;;;;;;7.48;40.83;102342.94;143748;573;47010;-74
2021/04/10 00:10:09;;;;;;;7.72;3.75;;;;;;;7.46;40.70;102342.94;143749;567;46018;-74
2021/04/10 00:12:36;;;;;;;9.43;4.15;;;;;;;7.42;41.17;102344.66;143752;659;48010;-74
2021/04/10 00:15:07;;;;;;;7.53;3.70;;;;;;;7.40;41.66;102338.50;143747;574;48020;-74
2021/04/10 00:17:34;;;;;;;7.93;3.92;;;;;;;7.37;41.55;102340.22;143749;562;46010;-74
2021/04/10 00:20:01;;;;;;;7.82;3.83;;;;;;;7.34;42.18;102340.19;143749;602;46018;-74
2021/04/10 00:22:28;;;;;;;8.23;4.37;;;;;;;7.28;42.83;102338.37;143750;572;48010;-74
2021/04/10 00:24:58;;;;;;;10.60;4.65;;;;;;;7.24;42.68;102336.59;143742;584;46018;-74
2021/04/10 00:27:25;;;;;;;11.07;5.10;;;;;;;7.18;42.62;102340.00;143752;557;46024;-74
2021/04/10 00:29:52;;;;;;;10.07;5.20;;;;;;;7.16;43.00;102333.00;143750;596;47010;-74
2021/04/10 00:32:20;;;;;;;8.95;4.37;;;;;;;7.13;43.39;102336.44;143752;695;46018;-74
2021/04/10 00:34:47;;;;;;;8.38;3.78;;;;;;;7.11;43.03;102338.19;143749;651;46010;-74
2021/04/10 00:37:14;;;;;;;9.07;4.03;;;;;;;7.08;43.30;102332.91;143748;569;47010;-75
2021/04/10 00:39:41;;;;;;;8.45;3.87;;;;;;;7.04;43.62;102328.50;143752;570;46010;-74
2021/04/10 00:42:09;;;;;;;9.05;3.70;;;;;;;7.00;44.30;102321.47;143748;742;48006;-74
2021/04/10 00:44:36;;;;;;;4.97;3.15;;;;;;;6.99;44.00;102330.19;143740;579;48021;-74
2021/04/10 00:47:03;;;;;;;7.03;3.17;;;;;;;6.95;43.73;102327.53;143749;651;46018;-74
2021/04/10 00:49:30;;;;;;;3.90;2.80;;;;;;;6.93;43.47;102326.62;143741;568;46018;-74
2021/04/10 00:51:58;;;;;;;4.37;2.80;;;;;;;6.90;44.18;102329.22;143750;575;48010;-74
2021/04/10 00:54:25;;;;;;;5.18;2.75;;;;;;;6.88;44.29;102328.31;143748;603;47022;-74
2021/04/10 00:56:52;;;;;;;3.90;2.72;;;;;;;6.87;44.51;102328.28;143750;641;46010;-74
2021/04/10 00:59:19;;;;;;;5.97;2.80;;;;;;;6.84;44.67;102323.91;143750;609;46031;-74
2021/04/10 01:01:47;;;;;;;3.53;2.37;;;;;;;6.83;44.09;102322.13;143750;607;49010;-74
2021/04/10 01:04:14;;;;;;;3.17;2.10;;;;;;;6.83;44.53;102324.75;143746;605;48020;-74
2021/04/10 01:06:41;;;;;;;3.67;2.25;;;;;;;6.82;44.53;102320.41;143751;574;46010;-74
2021/04/10 01:09:08;;;;;;;5.25;2.35;;;;;;;6.80;44.86;102314.28;143749;568;47012;-76
2021/04/10 01:12:32;;;;;;;4.10;2.28;;;;;;;6.83;42.93;102321.28;143749;562;48010;-74
2021/04/10 01:15:51;;;;;;;4.90;2.70;;;;;;;6.84;42.15;102318.69;143746;576;46010;-74
2021/04/10 01:18:27;;;;;;;9.20;3.33;;;;;;;6.86;43.76;102309.16;143751;565;46018;-74
2021/04/10 01:21:23;;;;;;;6.85;3.55;;;;;;;6.89;42.34;102317.00;143751;598;46016;-74
2021/04/10 01:24:49;;;;;;;8.20;4.70;;;;;;;6.93;41.91;102321.41;143749;568;47008;-74
2021/04/10 01:27:51;;;;;;;10.38;4.90;;;;;;;6.95;42.52;102321.44;143748;578;47020;-74
2021/04/10 01:30:20;;;;;;;10.77;5.07;;;;;;;6.98;45.07;102315.38;143749;642;46019;-74
2021/04/10 01:32:59;;;;;;;13.70;6.40;;;;;;;7.02;43.77;102315.41;143747;569;46012;-74
2021/04/10 01:35:35;;;;;;;8.98;5.03;;;;;;;7.02;44.16;102322.38;143750;615;48011;-76
2021/04/10 01:38:04;;;;;;;7.45;4.50;;;;;;;6.97;45.33;102319.72;143750;584;46010;-74
2021/04/10 01:40:35;;;;;;;8.63;4.53;;;;;;;6.94;45.83;102319.66;143747;591;46018;-74
2021/04/10 01:43:02;;;;;;;12.10;5.12;;;;;;;6.89;46.21;102317.00;143745;568;46019;-75
2021/04/10 01:45:31;;;;;;;10.65;5.15;;;;;;;6.84;45.87;102318.69;143751;576;48010;-74
2021/04/10 01:48:09;;;;;;;8.63;5.05;;;;;;;6.81;45.66;102329.09;143750;565;46020;-74
2021/04/10 01:50:37;;;;;;;9.57;4.75;;;;;;;6.73;46.62;102312.44;143752;568;46008;-74
2021/04/10 01:53:06;;;;;;;7.25;4.55;;;;;;;6.66;46.41;102316.69;143752;617;46010;-74
2021/04/10 01:55:34;;;;;;;8.77;4.03;;;;;;;6.58;46.06;102307.87;143750;592;48010;-74
2021/04/10 01:58:02;;;;;;;6.05;3.55;;;;;;;6.52;45.73;102320.84;143749;591;46023;-74
2021/04/10 02:00:34;;;;;;;7.30;3.70;;;;;;;6.46;46.03;102316.41;143751;589;46025;-74
2021/04/10 02:03:03;;;;;;;6.95;3.40;;;;;;;6.42;46.20;102317.22;143752;572;46010;-74
2021/04/10 02:05:33;;;;;;;7.35;3.47;;;;;;;6.38;46.37;102318.94;143752;745;47008;-74
2021/04/10 02:08:02;;;;;;;5.53;3.37;;;;;;;6.35;46.78;102313.62;143745;572;46010;-74
2021/04/10 02:10:30;;;;;;;7.85;3.50;;;;;;;6.32;46.38;102318.81;143750;586;46010;-74
2021/04/10 02:12:58;;;;;;;6.60;3.47;;;;;;;6.28;46.81;102321.37;143748;573;46019;-74
2021/04/10 02:15:26;;;;;;;7.72;3.53;;;;;;;6.24;47.17;102321.28;143750;632;48010;-74
2021/04/10 02:17:58;;;;;;;8.60;3.62;;;;;;;6.21;46.68;102320.38;143748;599;46010;-74
2021/04/10 02:20:25;;;;;;;6.03;3.35;;;;;;;6.16;46.72;102328.13;143749;695;46019;-74
2021/04/10 02:22:56;;;;;;;8.52;3.15;;;;;;;6.14;47.18;102324.63;143736;569;47010;-74
2021/04/10 02:25:27;;;;;;;6.93;2.97;;;;;;;6.10;47.40;102328.91;143737;628;49010;-74
2021/04/10 02:27:55;;;;;;;5.60;2.85;;;;;;;6.05;46.96;102327.06;143735;568;48021;-74
2021/04/10 02:30:23;;;;;;;4.87;2.85;;;;;;;6.00;46.61;102327.00;143739;567;47010;-74
2021/04/10 02:32:56;;;;;;;4.22;3.10;;;;;;;5.99;46.55;102327.00;143736;663;46010;-74
2021/04/10 02:35:45;;;;;;;6.05;3.00;;;;;;;5.98;44.48;102322.63;143738;678;46021;-74
2021/04/10 02:38:14;;;;;;;8.32;3.53;;;;;;;5.91;47.52;102319.88;143736;609;48022;-74
2021/04/10 02:40:44;;;;;;;5.25;2.60;;;;;;;5.88;46.78;102305.91;143738;581;46031;-74
2021/04/10 02:43:18;;;;;;;3.55;2.50;;;;;;;5.85;46.86;102306.75;143733;599;46012;-74
2021/04/10 02:45:46;;;;;;;7.03;3.05;;;;;;;5.82;46.52;102308.41;143739;571;46018;-74
2021/04/10 02:48:27;;;;;;;6.32;3.05;;;;;;;5.74;46.38;102311.75;143735;572;48020;-74
2021/04/10 02:50:57;;;;;;;11.77;3.35;;;;;;;5.70;46.54;102302.13;143738;605;47010;-74
2021/04/10 02:53:25;;;;;;;9.27;2.55;;;;;;;5.64;46.63;102309.81;143738;591;46010;-73
2021/04/10 02:55:57;;;;;;;13.43;7.03;;;;;;;5.62;45.87;102305.44;143739;580;48010;-75
2021/04/10 02:58:25;;;;;;;11.70;7.45;;;;;;;5.64;46.67;102312.44;143732;567;47021;-74
2021/04/10 03:00:56;;;;;;;8.88;4.47;;;;;;;5.69;46.38;102315.16;143738;573;47010;-76
2021/04/10 03:03:24;;;;;;;13.82;7.97;;;;;;;5.74;47.17;102305.66;143736;641;47010;-74
2021/04/10 03:05:53;;;;;;;7.62;4.82;;;;;;;5.77;46.34;102313.56;143738;600;46019;-74
2021/04/10 03:08:23;;;;;;;7.80;4.40;;;;;;;5.79;46.15;102321.41;143734;584;48020;-74
2021/04/10 03:10:54;;;;;;;8.55;4.20;;;;;;;5.80;46.00;102318.81;143739;576;46018;-74
2021/04/10 03:13:24;;;;;;;6.35;4.20;;;;;;;5.82;46.70;102324.03;143736;604;46012;-74
2021/04/10 03:15:53;;;;;;;5.70;3.30;;;;;;;5.83;46.55;102328.41;143740;596;48010;-73
2021/04/10 03:18:22;;;;;;;8.90;3.90;;;;;;;5.82;47.00;102322.31;143735;586;48022;-74
2021/04/10 03:20:49;;;;;;;7.90;3.70;;;;;;;5.81;47.56;102320.56;143736;623;47010;-74
2021/04/10 03:23:16;;;;;;;6.85;3.50;;;;;;;5.79;47.61;102314.44;143734;571;46012;-74
2021/04/10 03:25:43;;;;;;;7.93;3.70;;;;;;;5.78;47.20;102311.81;143734;603;48010;-74
2021/04/10 03:28:11;;;;;;;5.20;3.25;;;;;;;5.75;46.88;102310.03;143734;565;48021;-74
2021/04/10 03:30:40;;;;;;;7.40;3.35;;;;;;;5.72;46.80;102309.97;143738;625;47010;-74
2021/04/10 03:33:09;;;;;;;8.93;2.62;;;;;;;5.69;46.24;102304.72;143733;580;46018;-74
2021/04/10 03:35:36;;;;;;;4.70;2.25;;;;;;;5.65;46.10;102315.94;143738;576;47010;-74
2021/04/10 03:38:04;;;;;;;5.47;2.42;;;;;;;5.63;45.86;102315.91;143737;680;48022;-74
2021/04/10 03:40:31;;;;;;;5.20;2.53;;;;;;;5.62;46.73;102323.69;143737;619;47010;-74
2021/04/10 03:42:58;;;;;;;11.82;6.62;;;;;;;5.59;46.93;102316.69;143735;604;46018;-74
2021/04/10 03:45:26;;;;;;;6.78;3.70;;;;;;;5.62;46.99;102321.06;143739;604;48006;-74
2021/04/10 03:47:55;;;;;;;7.43;2.80;;;;;;;5.61;46.57;102321.94;143738;592;46011;-74
2021/04/10 03:50:22;;;;;;;7.93;3.78;;;;;;;5.59;47.49;102327.09;143738;579;47010;-73
2021/04/10 03:52:52;;;;;;;6.97;3.35;;;;;;;5.58;47.13;102327.97;143736;567;46018;-74
2021/04/10 03:55:19;;;;;;;6.85;2.75;;;;;;;5.55;46.47;102328.78;143740;580;46020;-74
2021/04/10 03:57:46;;;;;;;8.20;2.25;;;;;;;5.52;46.59;102328.75;143735;581;48023;-74
2021/04/10 04:00:15;;;;;;;5.87;2.50;;;;;;;5.47;46.13;102327.78;143741;606;46008;-74
2021/04/10 04:02:42;;;;;;;9.15;2.85;;;;;;;5.42;45.92;102329.41;143738;688;46018;-74
2021/04/10 04:05:10;;;;;;;6.97;2.92;;;;;;;5.43;45.46;102325.97;143739;609;48006;-74
2021/04/10 04:07:37;;;;;;;7.22;2.87;;;;;;;5.42;45.64;102332.00;143734;563;48022;-74
2021/04/10 04:10:06;;;;;;;8.13;3.20;;;;;;;5.43;45.57;102328.56;143739;622;47010;-75
2021/04/10 04:12:33;;;;;;;6.70;3.10;;;;;;;5.44;45.50;102338.16;143737;612;46019;-73
2021/04/10 04:15:09;;;;;;;7.20;3.92;;;;;;;5.45;44.83;102329.47;143741;572;46008;-74
2021/04/10 04:17:36;;;;;;;8.88;3.62;;;;;;;5.48;45.88;102336.47;143737;583;47022;-73
2021/04/10 04:20:05;;;;;;;16.02;3.75;;;;;;;5.49;45.96;102333.00;143739;569;47010;-74
2021/04/10 04:22:32;;;;;;;9.32;3.65;;;;;;;5.49;46.51;102338.22;143738;557;46012;-74
2021/04/10 04:24:59;;;;;;;11.55;3.25;;;;;;;5.49;46.15;102338.22;143739;568;48006;-74
2021/04/10 04:27:26;;;;;;;13.62;3.30;;;;;;;5.50;46.64;102333.03;143738;568;46010;-74
2021/04/10 04:29:54;;;;;;;11.30;3.50;;;;;;;5.49;47.07;102339.09;143738;593;46008;-74
2021/04/10 04:32:22;;;;;;;25.10;3.30;;;;;;;5.50;47.06;102340.84;143736;576;46012;-74
2021/04/10 04:34:49;;;;;;;8.95;3.20;;;;;;;5.49;47.33;102336.47;143740;600;47006;-73
2021/04/10 04:37:16;;;;;;;6.30;2.87;;;;;;;5.51;47.48;102336.50;143736;573;46010;-74
2021/04/10 04:39:44;;;;;;;13.45;2.87;;;;;;;5.51;46.95;102342.63;143737;671;46019;-74
2021/04/10 04:42:11;;;;;;;5.82;2.67;;;;;;;5.52;47.30;102338.28;143739;581;46028;-74
2021/04/10 04:44:38;;;;;;;8.43;2.53;;;;;;;5.53;47.23;102340.91;143739;567;48006;-74
2021/04/10 04:47:05;;;;;;;;;;;;;;;5.58;44.15;102333.19;143743;979;46011;-74
2021/04/10 04:49:32;;;;;;;9.85;2.75;;;;;;;5.54;47.63;102337.47;143745;562;46018;-74
2021/04/10 04:51:59;;;;;;;9.80;2.67;;;;;;;5.57;47.44;102344.44;143739;562;46014;-74
2021/04/10 04:54:26;;;;;;;5.30;2.60;;;;;;;5.58;47.33;102341.87;143742;636;46008;-74
2021/04/10 04:56:53;;;;;;;7.70;2.90;;;;;;;5.61;48.08;102345.41;143737;570;47023;-74
2021/04/10 04:59:20;;;;;;;6.28;2.78;;;;;;;5.64;47.85;102338.50;143739;567;46018;-74
2021/04/10 05:01:50;;;;;;;;;;;;;;;5.73;44.00;102343.88;143742;962;46014;-68
2021/04/10 05:04:17;;;;;;;5.75;2.50;;;;;;;5.74;48.32;102344.75;143751;591;46021;-76
2021/04/10 05:06:44;;;;;;;7.87;2.90;;;;;;;5.79;49.04;102339.63;143739;590;46010;-74
2021/04/10 05:09:12;;;;;;;7.57;2.80;;;;;;;5.85;48.81;102342.34;143737;617;47011;-73
2021/04/10 05:11:39;;;;;;;8.25;2.62;;;;;;;5.92;48.39;102347.69;143739;604;46032;-73
2021/04/10 05:14:06;;;;;;;6.85;2.83;;;;;;;6.00;48.57;102345.28;143741;652;48010;-73
2021/04/10 05:16:33;;;;;;;6.00;2.70;;;;;;;6.09;48.54;102336.72;143740;568;46010;-73
2021/04/10 05:19:00;;;;;;;9.07;3.12;;;;;;;6.17;49.48;102344.66;143736;593;46019;-74
2021/04/10 05:21:27;;;;;;;9.45;3.78;;;;;;;6.25;48.92;102341.31;143733;678;47012;-74
2021/04/10 05:23:54;;;;;;;16.80;7.47;;;;;;;6.34;49.75;102340.59;143740;625;48010;-73
2021/04/10 05:26:22;;;;;;;10.73;6.32;;;;;;;6.43;49.76;102347.69;143737;688;46010;-74
2021/04/10 05:28:49;;;;;;;13.75;5.25;;;;;;;6.53;49.46;102338.25;143740;589;47010;-73
2021/04/10 05:31:16;;;;;;;9.70;4.78;;;;;;;6.61;48.65;102352.31;143738;633;46028;-73
2021/04/10 05:33:46;;;;;;;11.15;5.78;;;;;;;6.71;48.27;102350.69;143740;564;47011;-74
2021/04/10 05:36:13;;;;;;;9.40;4.65;;;;;;;6.79;48.21;102346.44;143738;578;48022;-73
2021/04/10 05:38:40;;;;;;;13.20;5.03;;;;;;;6.88;47.74;102340.50;143740;552;47010;-74
2021/04/10 05:41:07;;;;;;;26.17;11.70;;;;;;;6.97;46.13;102348.47;143739;597;46010;-73
2021/04/10 05:43:35;;;;;;;24.37;11.70;;;;;;;7.05;45.71;102345.94;143740;591;48010;-73
2021/04/10 05:46:02;;;;;;;23.58;12.02;;;;;;;7.13;44.90;102344.28;143739;626;46020;-74
2021/04/10 05:48:29;;;;;;;22.67;11.38;;;;;;;7.22;45.28;102346.16;143739;568;47011;-74
2021/04/10 05:50:56;;;;;;;21.52;10.75;;;;;;;7.31;44.96;102353.22;143740;645;46010;-74
2021/04/10 05:53:23;;;;;;;12.93;6.35;;;;;;;7.37;43.58;102346.31;143744;564;45020;-74
2021/04/10 05:55:49;;;;;;;;;;;;;;;7.45;42.40;102355.13;143742;980;46021;-74
2021/04/10 05:58:17;;;;;;;14.93;5.62;;;;;;;7.52;44.12;102355.19;143751;580;47010;-73
2021/04/10 06:00:44;;;;;;;12.60;5.75;;;;;;;7.58;43.76;102356.13;143741;637;46016;-74
2021/04/10 06:03:11;;;;;;;13.98;6.65;;;;;;;7.65;43.61;102349.22;143741;586;48013;-73
2021/04/10 06:05:38;;;;;;;13.32;6.30;;;;;;;7.70;43.56;102350.16;143738;643;47020;-73
2021/04/10 06:08:06;;;;;;;16.67;6.03;;;;;;;7.78;42.90;102347.63;143742;567;46012;-74
2021/04/10 06:10:33;;;;;;;18.10;5.03;;;;;;;7.84;42.45;102339.81;143742;569;46018;-74
2021/04/10 06:13:00;;;;;;;12.88;4.87;;;;;;;7.91;42.92;102344.28;143739;631;46020;-73
2021/04/10 06:15:27;;;;;;;11.57;4.70;;;;;;;7.97;42.66;102344.31;143736;568;48020;-75
2021/04/10 06:17:54;;;;;;;16.05;4.90;;;;;;;8.03;42.70;102340.88;143738;613;46019;-73
2021/04/10 06:20:22;;;;;;;15.65;5.50;;;;;;;8.09;42.12;102343.56;143737;575;46033;-73
2021/04/10 06:22:49;;;;;;;11.30;5.00;;;;;;;8.13;42.13;102347.06;143741;608;46020;-75
2021/04/10 06:25:17;;;;;;;9.38;4.12;;;;;;;8.20;42.65;102342.75;143735;597;46581;-73
2021/04/10 06:27:44;;;;;;;8.73;4.40;;;;;;;8.25;42.22;102343.66;143738;589;46018;-73
2021/04/10 06:30:12;;;;;;;9.93;4.75;;;;;;;8.30;42.32;102341.97;143735;567;46034;-73
2021/04/10 06:32:39;;;;;;;13.50;5.35;;;;;;;8.36;42.58;102349.84;143740;571;46016;-73
2021/04/10 06:35:07;;;;;;;12.80;6.25;;;;;;;8.43;43.06;102343.81;143740;589;46012;-73
2021/04/10 06:37:36;;;;;;;13.52;6.70;;;;;;;8.48;43.07;102340.38;143741;568;47010;-73
2021/04/10 06:40:07;;;;;;;16.10;6.78;;;;;;;8.56;43.47;102339.56;143739;587;46019;-73
2021/04/10 06:42:34;;;;;;;18.70;6.18;;;;;;;8.62;43.82;102343.94;143740;580;47012;-73
2021/04/10 06:45:01;;;;;;;13.05;6.72;;;;;;;8.71;44.31;102348.37;143738;578;48020;-73
2021/04/10 06:47:33;;;;;;;14.45;6.62;;;;;;;8.76;43.82;102346.66;143739;610;47010;-73
2021/04/10 06:50:01;;;;;;;16.15;7.30;;;;;;;8.83;43.94;102344.94;143737;616;46035;-73
2021/04/10 06:52:30;;;;;;;10.82;5.40;;;;;;;8.92;43.43;102342.37;143740;669;46018;-73
2021/04/10 06:55:07;;;;;;;6.95;3.65;;;;;;;9.00;42.74;102345.03;143738;581;46019;-73
2021/04/10 06:58:05;;;;;;;10.50;4.47;;;;;;;9.07;42.70;102339.81;143739;587;46018;-73
2021/04/10 07:00:33;;;;;;;8.63;4.20;;;;;;;9.14;43.53;102351.19;143740;675;46012;-75
2021/04/10 07:03:01;;;;;;;8.43;4.50;;;;;;;9.22;42.55;102346.00;143740;568;46019;-73
2021/04/10 07:05:30;;;;;;;11.63;5.45;;;;;;;9.29;42.75;102347.75;143736;563;46020;-73
2021/04/10 07:07:57;;;;;;;9.60;4.90;;;;;;;9.36;42.66;102335.56;143741;593;47010;-73
2021/04/10 07:10:24;;;;;;;9.27;4.20;;;;;;;9.42;42.79;102332.97;143742;631;46013;-74
2021/04/10 07:12:51;;;;;;;10.00;3.80;;;;;;;9.48;42.34;102339.06;143740;606;49014;-74
2021/04/10 07:15:19;;;;;;;6.47;3.40;;;;;;;9.54;42.71;102334.72;143737;561;48020;-74
2021/04/10 07:17:51;;;;;;;6.07;3.83;;;;;;;9.60;43.04;102346.09;143740;589;47011;-74
2021/04/10 07:20:43;;;;;;;6.50;3.40;;;;;;;9.65;41.94;102340.88;143737;581;46012;-74
2021/04/10 07:23:14;;;;;;;4.37;2.30;;;;;;;9.66;41.48;102340.00;143743;589;46010;-77
2021/04/10 07:25:46;;;;;;;5.57;3.47;;;;;;;9.69;42.81;102337.41;143732;569;49021;-76
2021/04/10 07:28:30;;;;;;;8.90;3.80;;;;;;;9.74;43.02;102340.00;143741;611;46010;-74
2021/04/10 07:31:06;;;;;;;10.45;3.65;;;;;;;9.78;43.46;102334.75;143737;606;46018;-74
2021/04/10 07:33:38;;;;;;;7.00;4.35;;;;;;;9.83;43.78;102338.28;143738;597;46021;-72
2021/04/10 07:36:10;;;;;;;8.80;4.53;;;;;;;9.92;43.67;102344.41;143737;562;47012;-76
2021/04/10 07:38:40;;;;;;;9.95;5.37;;;;;;;9.96;44.57;102336.56;143740;580;46018;-74
2021/04/10 07:41:18;;;;;;;13.20;4.93;;;;;;;9.99;43.84;102339.16;143739;569;46016;-78
2021/04/10 07:43:46;;;;;;;9.45;4.60;;;;;;;10.02;44.07;102346.16;143740;616;46018;-76
2021/04/10 07:46:27;;;;;;;8.90;4.50;;;;;;;10.08;43.86;102345.28;143738;563;48020;-76
2021/04/10 07:49:20;;;;;;;9.27;4.00;;;;;;;10.13;41.86;102356.69;143740;596;47010;-74
2021/04/10 07:51:57;;;;;;;7.55;3.80;;;;;;;10.14;42.43;102347.91;143736;567;47010;-76
2021/04/10 07:54:36;;;;;;;8.00;4.03;;;;;;;10.18;42.68;102354.03;143739;638;47012;-76
2021/04/10 07:57:05;;;;;;;9.23;3.80;;;;;;;10.20;42.24;102354.91;143734;699;48021;-76
2021/04/10 08:00:04;;;;;;;6.95;3.83;;;;;;;10.26;41.87;102355.78;143741;577;47010;-75
2021/04/10 08:02:35;;;;;;;7.60;4.20;;;;;;;10.30;42.64;102352.28;143740;627;46018;-75
2021/04/10 08:05:07;;;;;;;10.48;4.15;;;;;;;10.40;45.18;102354.94;143741;579;48012;-76
2021/04/10 08:07:35;;;;;;;7.18;4.18;;;;;;;10.50;44.02;102354.06;143737;600;46018;-75
2021/04/10 08:10:07;;;;;;;8.73;3.90;;;;;;;10.55;42.71;102348.78;143740;647;46019;-77
2021/04/10 08:12:36;;;;;;;10.38;4.57;;;;;;;10.64;42.68;102357.50;143739;584;47012;-74
2021/04/10 08:15:06;;;;;;;9.60;4.28;;;;;;;10.72;44.03;102361.91;143740;750;46018;-77
2021/04/10 08:17:43;;;;;;;7.15;4.20;;;;;;;10.82;42.75;102360.97;143740;627;46013;-76
2021/04/10 08:20:32;;;;;;;8.35;4.00;;;;;;;10.86;41.64;102352.22;143739;760;47010;-75
2021/04/10 08:23:20;;;;;;;9.20;4.55;;;;;;;10.99;42.74;102358.31;143738;622;46013;-74
2021/04/10 08:25:47;;;;;;;6.37;3.80;;;;;;;11.07;43.54;102355.63;143741;577;48010;-74
2021/04/10 08:28:18;;;;;;;8.80;4.35;;;;;;;11.19;42.56;102355.59;143739;657;46012;-76
2021/04/10 08:30:45;;;;;;;7.18;3.70;;;;;;;11.31;41.24;102355.53;143739;594;46018;-75
2021/04/10 08:33:12;;;;;;;7.53;3.55;;;;;;;11.44;39.02;102352.84;143739;601;46012;-75
2021/04/10 08:35:39;;;;;;;6.57;3.22;;;;;;;11.54;37.88;102351.03;143740;568;48012;-75
2021/04/10 08:38:07;;;;;;;5.40;3.28;;;;;;;11.63;36.96;102345.72;143739;667;46019;-75
2021/04/10 08:40:35;;;;;;;6.75;3.00;;;;;;;11.72;37.24;102344.78;143737;657;47012;-75
2021/04/10 08:43:04;;;;;;;7.07;3.30;;;;;;;11.81;36.55;102342.06;143740;584;46016;-77
2021/04/10 08:45:33;;;;;;;7.18;3.17;;;;;;;11.91;36.32;102342.91;143740;549;48012;-77
2021/04/10 08:48:08;;;;;;;4.87;2.55;;;;;;;12.01;35.51;102336.69;143738;598;46019;-74
2021/04/10 08:50:40;;;;;;;8.70;2.50;;;;;;;12.11;34.12;102330.47;143739;581;46021;-78
2021/04/10 08:53:14;;;;;;;9.40;2.80;;;;;;;12.23;34.23;102328.63;143736;582;46018;-75
2021/04/10 08:55:42;;;;;;;7.62;2.53;;;;;;;12.33;32.60;102328.53;143743;645;46012;-75
2021/04/10 08:58:28;;;;;;;4.22;2.50;;;;;;;12.41;34.17;102319.66;143650;587;76000;-76
2021/04/10 09:01:00;;;;;;;2.95;2.00;;;;;;;12.58;33.37;102324.78;143738;578;47010;-74
2021/04/10 09:03:54;;;;;;;5.65;2.12;;;;;;;12.69;33.38;102315.84;143737;598;46018;-74
2021/04/10 09:06:47;;;;;;;6.40;2.20;;;;;;;12.81;34.52;102313.97;143739;568;50008;-74
2021/04/10 09:09:32;;;;;;;2.17;1.62;;;;;;;12.92;31.09;102312.06;143738;644;48020;-74
2021/04/10 09:12:26;;;;;;;4.07;2.00;;;;;;;13.03;32.44;102304.87;143739;563;46018;-74
2021/04/10 09:14:53;;;;;;;3.45;2.05;;;;;;;13.16;31.22;102299.44;143734;710;47011;-74
2021/04/10 09:17:40;;;;;;;3.55;2.00;;;;;;;13.25;32.75;102296.69;143740;592;48011;-74
2021/04/10 09:20:08;;;;;;;3.15;2.00;;;;;;;13.35;32.18;102293.06;143739;591;46010;-73
2021/04/10 09:22:40;;;;;;;3.90;2.10;;;;;;;13.45;33.33;102283.25;143740;663;45018;-75
2021/04/10 09:25:10;;;;;;;6.43;1.90;;;;;;;13.55;32.86;102291.91;143738;589;46019;-67
2021/04/10 09:27:37;;;;;;;3.78;2.30;;;;;;;13.64;30.92;102288.22;143742;636;46018;-72
2021/04/10 09:30:06;;;;;;;3.08;1.80;;;;;;;13.71;30.15;102277.56;143737;663;46020;-73
2021/04/10 09:32:35;;;;;;;4.95;1.90;;;;;;;13.78;32.16;102288.91;143741;586;46008;-72
2021/04/10 09:35:19;;;;;;;3.28;1.73;;;;;;;13.85;32.83;102277.31;143740;584;46010;-73
2021/04/10 09:37:48;;;;;;;3.37;1.92;;;;;;;13.96;31.95;102277.16;143742;632;47008;-73
2021/04/10 09:40:43;;;;;;;3.72;1.90;;;;;;;14.07;33.40;102274.31;143735;621;48021;-72
2021/04/10 09:43:10;;;;;;;4.03;2.00;;;;;;;14.17;31.42;102275.88;143740;634;46030;-72
2021/04/10 09:45:38;;;;;;;2.08;1.52;;;;;;;14.25;30.57;102267.81;143737;584;46019;-72
2021/04/10 09:48:14;;;;;;;3.15;1.70;;;;;;;14.33;31.21;102260.63;143744;608;46010;-73
2021/04/10 09:50:58;;;;;;;2.70;1.65;;;;;;;14.41;29.78;102259.59;143736;608;48020;-73
2021/04/10 09:53:29;;;;;;;3.12;1.95;;;;;;;14.47;28.65;102256.84;143742;566;45019;-73
2021/04/10 09:56:22;;;;;;;3.70;1.60;;;;;;;14.56;31.41;102256.66;143741;619;47012;-73
2021/04/10 09:58:52;;;;;;;7.60;1.70;;;;;;;14.58;28.31;102254.84;143738;574;46018;-72
2021/04/10 10:01:21;;;;;;;1.98;1.60;;;;;;;14.66;29.12;102249.44;143737;626;46020;-73
2021/04/10 10:03:50;;;;;;;2.40;1.70;;;;;;;14.70;28.23;102251.97;143739;572;46018;-74
2021/04/10 10:06:30;;;;;;;4.15;2.37;;;;;;;14.76;31.19;102247.47;143736;577;46018;-73
2021/04/10 10:08:57;;;;;;;5.35;2.70;;;;;;;14.81;29.78;102242.97;143740;574;46019;-72
2021/04/10 10:11:24;;;;;;;5.65;2.80;;;;;;;14.88;30.94;102241.91;143734;568;48020;-73
2021/04/10 10:13:55;;;;;;;5.05;3.15;;;;;;;14.94;30.63;102236.50;143741;568;46008;-73
2021/04/10 10:16:31;;;;;;;4.18;2.50;;;;;;;15.03;30.32;102228.34;143739;640;47010;-72
2021/04/10 10:18:58;;;;;;;4.68;2.17;;;;;;;15.09;28.58;102222.06;143739;635;46008;-72
2021/04/10 10:21:26;;;;;;;4.82;2.47;;;;;;;15.16;28.52;102226.31;143733;594;47584;-73
2021/04/10 10:24:00;;;;;;;4.45;2.47;;;;;;;15.25;29.17;102219.06;143739;649;47010;-72
2021/04/10 10:26:39;;;;;;;5.65;2.78;;;;;;;15.31;30.24;102217.16;143735;579;46030;-73
2021/04/10 10:29:11;;;;;;;4.47;2.37;;;;;;;15.39;29.54;102207.25;143742;583;46008;-73
2021/04/10 10:31:47;;;;;;;3.83;2.55;;;;;;;15.50;29.86;102208.72;143735;596;48021;-78
2021/04/10 10:34:17;;;;;;;3.40;2.40;;;;;;;15.57;28.74;102197.09;143737;562;46018;-73
2021/04/10 10:36:45;;;;;;;6.47;2.92;;;;;;;15.60;30.01;102196.16;143739;596;46016;-74
2021/04/10 10:39:27;;;;;;;10.05;2.90;;;;;;;15.65;30.41;102194.25;143739;568;48010;-73
2021/04/10 10:41:55;;;;;;;5.12;2.50;;;;;;;15.69;29.14;102187.97;143737;564;46010;-73
2021/04/10 10:44:22;;;;;;;5.37;2.85;;;;;;;15.77;28.71;102182.47;143734;582;46018;-73
2021/04/10 10:47:04;;;;;;;4.75;1.90;;;;;;;15.86;29.61;102184.91;143732;563;47010;-73
2021/04/10 10:49:32;;;;;;;3.62;2.40;;;;;;;15.89;26.16;102177.75;143737;591;46018;-73
2021/04/10 10:51:59;;;;;;;5.95;2.15;;;;;;;15.96;26.06;102169.63;143737;610;47001;-72
2021/04/10 10:54:39;;;;;;;3.67;2.25;;;;;;;16.03;28.42;102164.12;143740;562;46008;-74
2021/04/10 10:57:13;;;;;;;7.75;2.45;;;;;;;16.08;28.00;102164.00;143733;576;47012;-73
2021/04/10 10:59:40;;;;;;;3.90;2.25;;;;;;;16.17;26.05;102162.84;143740;628;46018;-73
2021/04/10 11:02:11;;;;;;;7.18;2.60;;;;;;;16.26;27.62;102161.75;143734;601;48021;-73
2021/04/10 11:04:39;;;;;;;5.22;2.62;;;;;;;16.30;26.34;102156.28;143739;582;46010;-73
2021/04/10 11:07:07;;;;;;;7.28;2.37;;;;;;;16.38;26.62;102156.94;143736;640;46031;-73
2021/04/10 11:09:43;;;;;;;13.00;2.30;;;;;;;16.49;27.57;102155.75;143740;621;46010;-76
2021/04/10 11:12:15;;;;;;;6.07;2.42;;;;;;;16.57;26.45;102151.09;143735;604;46020;-77
2021/04/10 11:14:44;;;;;;;5.62;2.30;;;;;;;16.66;26.92;102145.53;143736;583;46018;-74
2021/04/10 11:17:12;;;;;;;3.87;1.92;;;;;;;16.76;27.42;102127.53;143735;624;46018;-73
2021/04/10 11:19:45;;;;;;;1.90;1.70;;;;;;;16.85;25.29;102129.00;143741;599;46010;-73
2021/04/10 11:22:16;;;;;;;2.80;1.90;;;;;;;16.89;25.06;102128.03;143735;568;47020;-73
2021/04/10 11:24:48;;;;;;;7.10;2.22;;;;;;;16.93;25.11;102121.72;143734;562;47010;-75
2021/04/10 11:27:20;;;;;;;3.70;2.10;;;;;;;16.96;27.15;102124.25;143736;600;46010;-73
2021/04/10 11:30:03;;;;;;;2.53;1.90;;;;;;;17.06;27.32;102124.84;143739;589;48010;-73
2021/04/10 11:32:50;;;;;;;4.97;2.20;;;;;;;17.18;27.75;102123.56;143738;602;46010;-72
2021/04/10 11:35:23;;;;;;;9.68;2.92;;;;;;;17.23;26.07;102122.47;143738;633;46029;-74
2021/04/10 11:37:53;;;;;;;5.43;1.62;;;;;;;17.25;23.66;102127.75;143735;586;47010;-74
2021/04/10 11:40:34;;;;;;;2.92;2.00;;;;;;;17.29;26.74;102118.78;143739;595;48010;-74
2021/04/10 11:43:05;;;;;;;5.32;1.90;;;;;;;17.28;22.78;102117.03;143736;644;47010;-74
2021/04/10 11:45:36;;;;;;;3.12;1.70;;;;;;;17.30;21.86;102109.88;143739;653;47010;-74
2021/04/10 11:48:15;;;;;;;5.37;1.85;;;;;;;17.36;24.53;102104.34;143739;591;46010;-72